Time;durP1;ratioP1;P1;durP2;ratioP2;P2;SDS_P1;SDS_P2;PMS_P1;PMS_P2;Temp;Humidity;BMP_temperature;BMP_pressure;BME280_temperature;BME280_humidity;BME280_pressure;Samples;Min_cycle;Max_cycle;Signal;HPM_P1;HPM_P2
2022/10/06 00:00:46;;;;;;;;;;;14.10;99.90;;;;;;5064342;28;19924;-71
2022/10/06 00:03:13;;;;;;;;;;;14.10;99.90;;;;;;5066153;28;19920;-72
2022/10/06 00:05:40;;;;;;;;;;;14.10;99.90;;;;;;5063871;28;20314;-71
2022/10/06 00:08:07;;;;;;;;;;;14.00;99.90;;;;;;5064530;28;20015;-71
2022/10/06 00:10:36;;;;;;;;;;;14.00;99.90;;;;;;5060068;28;20380;-69
2022/10/06 00:13:03;;;;;;;;;;;13.90;99.90;;;;;;5065442;28;20011;-72
2022/10/06 00:15:31;;;;;;;;;;;13.80;99.90;;;;;;5066899;28;19920;-71
2022/10/06 00:17:58;;;;;;;;;;;13.80;99.90;;;;;;5065107;28;20028;-71
2022/10/06 00:20:25;;;;;;;;;;;13.80;99.90;;;;;;5065219;28;20336;-71
2022/10/06 00:22:52;;;;;;;;;;;13.80;99.90;;;;;;5064278;28;19946;-72
2022/10/06 00:25:20;;;;;;;;;;;13.80;99.90;;;;;;5030788;28;20035;-71
2022/10/06 00:27:48;;;;;;;;;;;13.70;99.90;;;;;;5064120;28;19921;-71
2022/10/06 00:30:24;;;;;;;;;;;13.70;99.90;;;;;;5048344;28;20430;-72
2022/10/06 00:32:52;;;;;;;;;;;13.70;99.90;;;;;;5062255;28;20393;-71
2022/10/06 00:35:19;;;;;;;;;;;13.70;99.90;;;;;;5065056;28;19921;-71
2022/10/06 00:37:46;;;;;;;;;;;13.60;99.90;;;;;;5066266;28;19973;-71
2022/10/06 00:40:13;;;;;;;;;;;13.60;99.90;;;;;;5065652;28;20266;-71
2022/10/06 00:43:06;;;;;;;;;;;13.60;99.90;;;;;;5060869;28;20276;-70
2022/10/06 00:45:38;;;;;;;;;;;13.60;99.90;;;;;;5057705;28;20014;-72
2022/10/06 00:48:20;;;;;;;;;;;13.60;99.90;;;;;;5064444;28;20007;-71
2022/10/06 00:50:47;;;;;;;;;;;13.60;99.90;;;;;;5042659;28;19999;-71
2022/10/06 00:53:14;;;;;;;;;;;13.60;99.90;;;;;;5066648;28;19920;-71
2022/10/06 00:55:41;;;;;;;;;;;13.60;99.90;;;;;;5066248;28;19925;-71
2022/10/06 00:58:08;;;;;;;;;;;13.60;99.90;;;;;;5065545;28;19927;-72
2022/10/06 01:00:35;;;;;;;;;;;13.50;99.90;;;;;;5044749;28;19921;-71
2022/10/06 01:03:17;;;;;;;;;;;13.50;99.90;;;;;;5047458;28;19988;-72
2022/10/06 01:05:47;;;;;;;;;;;13.50;99.90;;;;;;5065151;28;19988;-71
2022/10/06 01:08:14;;;;;;;;;;;13.50;99.90;;;;;;5041438;28;20006;-72
2022/10/06 01:10:41;;;;;;;;;;;13.50;99.90;;;;;;5044585;28;19927;-71
2022/10/06 01:13:10;;;;;;;;;;;13.50;99.90;;;;;;5063810;28;19924;-71
2022/10/06 01:15:45;;;;;;;;;;;13.50;99.90;;;;;;5065890;28;20253;-71
2022/10/06 01:18:13;;;;;;;;;;;13.50;99.90;;;;;;5063924;28;19920;-71
2022/10/06 01:20:43;;;;;;;;;;;13.50;99.90;;;;;;5044161;28;20021;-70
2022/10/06 01:23:09;;;;;;;;;;;13.50;99.90;;;;;;5047514;28;20467;-71
2022/10/06 01:25:37;;;;;;;;;;;13.50;99.90;;;;;;5047261;28;19932;-71
2022/10/06 01:28:04;;;;;;;;;;;13.50;99.90;;;;;;5043229;28;19921;-71
2022/10/06 01:30:35;;;;;;;;;;;13.60;99.90;;;;;;5049601;28;20243;-71
2022/10/06 01:33:02;;;;;;;;;;;13.60;99.90;;;;;;5049484;28;19920;-71
2022/10/06 01:35:28;;;;;;;;;;;13.50;99.90;;;;;;5050251;28;20039;-71
2022/10/06 01:37:57;;;;;;;;;;;13.60;99.90;;;;;;5069060;28;19951;-71
2022/10/06 01:40:27;;;;;;;;;;;13.60;99.90;;;;;;5051863;28;19933;-71
2022/10/06 01:42:57;;;;;;;;;;;13.60;99.90;;;;;;5049756;28;20368;-71
2022/10/06 01:45:25;;;;;;;;;;;13.60;99.90;;;;;;5056316;28;19920;-72
2022/10/06 01:47:52;;;;;;;;;;;13.60;99.90;;;;;;5051220;28;19928;-71
2022/10/06 01:50:19;;;;;;;;;;;13.60;99.90;;;;;;5075507;28;19974;-70
2022/10/06 01:52:46;;;;;;;;;;;13.60;99.90;;;;;;5067879;28;20265;-71
2022/10/06 01:55:13;;;;;;;;;;;13.70;99.90;;;;;;5069683;28;19975;-71
2022/10/06 01:57:41;;;;;;;;;;;13.80;99.90;;;;;;5049753;28;19963;-71
2022/10/06 02:00:09;;;;;;;;;;;13.70;99.90;;;;;;5068633;28;19931;-71
2022/10/06 02:02:41;;;;;;;;;;;13.80;99.90;;;;;;5060010;28;19924;-71
2022/10/06 02:05:08;;;;;;;;;;;13.90;99.90;;;;;;5042057;28;19982;-73
2022/10/06 02:07:37;;;;;;;;;;;13.90;99.90;;;;;;5050397;28;19928;-72
2022/10/06 02:10:05;;;;;;;;;;;13.90;99.90;;;;;;5051632;28;19935;-72
2022/10/06 02:12:33;;;;;;;;;;;14.00;99.90;;;;;;5049720;28;19921;-76
2022/10/06 02:15:00;;;;;;;;;;;14.00;99.90;;;;;;5048545;28;20007;-71
2022/10/06 02:17:28;;;;;;;;;;;14.10;99.90;;;;;;5043109;28;19920;-71
2022/10/06 02:19:55;;;;;;;;;;;14.10;99.90;;;;;;5040165;28;19975;-70
2022/10/06 02:22:21;;;;;;;;;;;14.10;99.90;;;;;;5049980;28;20374;-72
2022/10/06 02:24:48;;;;;;;;;;;14.20;99.90;;;;;;5067111;28;19927;-71
2022/10/06 02:27:15;;;;;;;;;;;14.20;99.90;;;;;;5048727;28;19943;-71
2022/10/06 02:29:43;;;;;;;;;;;14.30;99.90;;;;;;5049808;28;20006;-70
2022/10/06 02:32:12;;;;;;;;;;;14.30;99.90;;;;;;5049943;28;20011;-71
2022/10/06 02:34:39;;;;;;;;;;;14.40;99.90;;;;;;5047139;28;19920;-70
2022/10/06 02:37:06;;;;;;;;;;;14.40;99.90;;;;;;5054691;28;20168;-71
2022/10/06 02:39:33;;;;;;;;;;;14.50;99.90;;;;;;5066800;28;19959;-71
2022/10/06 02:42:02;;;;;;;;;;;14.50;99.90;;;;;;5067204;28;20366;-71
2022/10/06 02:44:29;;;;;;;;;;;14.60;99.90;;;;;;5068309;28;19924;-70
2022/10/06 02:46:56;;;;;;;;;;;14.60;99.90;;;;;;5048292;28;19928;-71
2022/10/06 02:49:23;;;;;;;;;;;14.60;99.90;;;;;;5067878;28;19931;-72
2022/10/06 02:51:50;;;;;;;;;;;14.70;99.90;;;;;;5031049;28;19948;-71
2022/10/06 02:54:17;;;;;;;;;;;14.70;99.90;;;;;;5067924;28;19920;-71
2022/10/06 02:56:45;;;;;;;;;;;14.70;99.90;;;;;;5066315;28;19995;-71
2022/10/06 02:59:12;;;;;;;;;;;14.70;99.90;;;;;;5067562;28;20020;-71
2022/10/06 03:01:40;;;;;;;;;;;14.70;99.90;;;;;;5045725;28;20015;-71
2022/10/06 03:04:12;;;;;;;;;;;14.70;99.90;;;;;;5072206;28;19920;-71
2022/10/06 03:06:41;;;;;;;;;;;14.70;99.90;;;;;;5052428;28;19926;-70
2022/10/06 03:09:22;;;;;;;;;;;14.80;99.90;;;;;;5043931;28;20011;-71
2022/10/06 03:11:50;;;;;;;;;;;14.80;99.90;;;;;;5049076;28;19921;-71
2022/10/06 03:14:25;;;;;;;;;;;14.80;99.90;;;;;;5049628;28;19924;-71
2022/10/06 03:16:53;;;;;;;;;;;14.80;99.90;;;;;;5059021;28;20293;-71
2022/10/06 03:19:24;;;;;;;;;;;14.80;99.90;;;;;;5036044;28;20388;-71
2022/10/06 03:21:51;;;;;;;;;;;14.80;99.90;;;;;;5048862;28;20007;-71
2022/10/06 03:24:20;;;;;;;;;;;14.80;99.90;;;;;;5047258;28;20286;-70
2022/10/06 03:26:51;;;;;;;;;;;14.80;99.90;;;;;;5045762;28;19999;-71
2022/10/06 03:29:19;;;;;;;;;;;14.80;99.90;;;;;;5044700;28;19920;-71
2022/10/06 03:31:51;;;;;;;;;;;14.80;99.90;;;;;;5049306;28;20545;-71
2022/10/06 03:34:17;;;;;;;;;;;14.80;99.90;;;;;;5046878;28;20079;-72
2022/10/06 03:36:44;;;;;;;;;;;14.80;99.90;;;;;;5042167;28;20366;-70
2022/10/06 03:39:12;;;;;;;;;;;14.80;99.90;;;;;;5072902;28;19927;-71
2022/10/06 03:41:39;;;;;;;;;;;14.80;99.90;;;;;;5048788;28;19968;-71
2022/10/06 03:44:08;;;;;;;;;;;14.70;99.90;;;;;;5045908;28;19997;-71
2022/10/06 03:46:37;;;;;;;;;;;14.80;99.90;;;;;;5068578;28;19978;-70
2022/10/06 03:49:06;;;;;;;;;;;14.80;99.90;;;;;;5065725;28;19924;-71
2022/10/06 03:51:34;;;;;;;;;;;14.80;99.90;;;;;;5041087;28;19924;-71
2022/10/06 03:54:01;;;;;;;;;;;14.70;99.90;;;;;;5066258;28;20378;-71
2022/10/06 03:56:32;;;;;;;;;;;14.70;99.90;;;;;;5048361;28;20396;-71
2022/10/06 03:59:00;;;;;;;;;;;14.80;99.90;;;;;;5064309;28;20576;-71
2022/10/06 04:01:32;;;;;;;;;;;14.80;99.90;;;;;;5040835;28;19934;-71
2022/10/06 04:04:02;;;;;;;;;;;14.80;99.90;;;;;;5066116;28;19924;-71
2022/10/06 04:06:30;;;;;;;;;;;14.80;99.90;;;;;;5052029;28;19924;-71
2022/10/06 04:08:58;;;;;;;;;;;14.80;99.90;;;;;;5042460;28;19927;-73
2022/10/06 04:11:27;;;;;;;;;;;14.80;99.90;;;;;;5041674;28;20304;-71
2022/10/06 04:13:59;;;;;;;;;;;14.80;99.90;;;;;;5044953;28;19921;-70
2022/10/06 04:16:31;;;;;;;;;;;14.80;99.90;;;;;;5047003;28;19920;-71
2022/10/06 04:19:09;;;;;;;;;;;14.80;99.90;;;;;;5066922;28;19920;-72
2022/10/06 04:21:39;;;;;;;;;;;14.80;99.90;;;;;;5047794;28;19929;-71
2022/10/06 04:24:09;;;;;;;;;;;14.80;99.90;;;;;;5040993;28;20534;-71
2022/10/06 04:26:40;;;;;;;;;;;14.80;99.90;;;;;;5046071;28;19920;-71
2022/10/06 04:29:07;;;;;;;;;;;14.80;99.90;;;;;;5066028;28;20294;-71
2022/10/06 04:31:35;;;;;;;;;;;14.80;99.90;;;;;;5063926;28;19927;-71
2022/10/06 04:34:05;;;;;;;;;;;14.80;99.90;;;;;;5044490;28;19921;-71
2022/10/06 04:36:34;;;;;;;;;;;14.80;99.90;;;;;;5036468;28;20385;-70
2022/10/06 04:39:02;;;;;;;;;;;14.70;99.90;;;;;;5041390;28;19959;-70
2022/10/06 04:41:32;;;;;;;;;;;14.70;99.90;;;;;;5048324;28;19943;-70
2022/10/06 04:43:59;;;;;;;;;;;14.70;99.90;;;;;;5048262;28;19928;-71
2022/10/06 04:46:27;;;;;;;;;;;14.80;99.90;;;;;;5030616;28;19920;-70
2022/10/06 04:49:12;;;;;;;;;;;14.80;99.90;;;;;;5041890;28;19924;-71
2022/10/06 04:51:48;;;;;;;;;;;14.80;99.90;;;;;;5045370;28;20360;-71
2022/10/06 04:54:14;;;;;;;;;;;14.80;99.90;;;;;;5042756;28;20334;-71
2022/10/06 04:56:42;;;;;;;;;;;14.80;99.90;;;;;;5044038;28;19938;-71
2022/10/06 04:59:09;;;;;;;;;;;14.70;99.90;;;;;;5047081;28;19920;-72
2022/10/06 05:01:38;;;;;;;;;;;14.70;99.90;;;;;;5043859;28;20032;-70
2022/10/06 05:04:09;;;;;;;;;;;14.70;99.90;;;;;;5045002;28;20220;-71
2022/10/06 05:06:40;;;;;;;;;;;14.60;99.90;;;;;;5072349;28;19920;-70
2022/10/06 05:09:09;;;;;;;;;;;14.60;99.90;;;;;;5045827;28;19920;-71
2022/10/06 05:11:37;;;;;;;;;;;14.60;99.90;;;;;;5067855;28;20158;-70
2022/10/06 05:14:07;;;;;;;;;;;14.60;99.90;;;;;;5049834;28;19925;-70
2022/10/06 05:16:37;;;;;;;;;;;14.70;99.90;;;;;;5021478;28;19924;-70
2022/10/06 05:19:05;;;;;;;;;;;14.60;99.90;;;;;;5049477;28;19924;-70
2022/10/06 05:21:32;;;;;;;;;;;14.70;99.90;;;;;;5047402;28;20380;-71
2022/10/06 05:23:59;;;;;;;;;;;14.70;99.90;;;;;;5047316;28;19924;-71
2022/10/06 05:26:27;;;;;;;;;;;14.70;99.90;;;;;;5066952;28;19924;-72
2022/10/06 05:28:55;;;;;;;;;;;14.70;99.90;;;;;;5047263;28;19981;-69
2022/10/06 05:31:27;;;;;;;;;;;14.70;99.90;;;;;;5041102;28;19928;-71
2022/10/06 05:33:55;;;;;;;;;;;14.60;99.90;;;;;;5066162;28;19920;-71
2022/10/06 05:36:29;;;;;;;;;;;14.60;99.90;;;;;;5042778;28;19974;-69
2022/10/06 05:38:56;;;;;;;;;;;14.60;99.90;;;;;;5046469;28;20875;-70
2022/10/06 05:41:28;;;;;;;;;;;14.60;99.90;;;;;;5039622;28;19999;-71
2022/10/06 05:43:57;;;;;;;;;;;14.60;99.90;;;;;;5045784;28;19920;-69
2022/10/06 05:46:27;;;;;;;;;;;14.60;99.90;;;;;;5037337;28;20023;-71
2022/10/06 05:48:56;;;;;;;;;;;14.50;99.90;;;;;;5050185;28;20015;-71
2022/10/06 05:51:27;;;;;;;;;;;14.50;99.90;;;;;;5045121;28;19928;-71
2022/10/06 05:53:58;;;;;;;;;;;14.50;99.90;;;;;;5049964;28;20416;-69
2022/10/06 05:56:29;;;;;;;;;;;14.50;99.90;;;;;;5050568;28;19920;-71
2022/10/06 05:58:56;;;;;;;;;;;14.40;99.90;;;;;;5043934;28;19928;-70
2022/10/06 06:01:26;;;;;;;;;;;14.40;99.90;;;;;;5048875;28;19920;-71
2022/10/06 06:03:55;;;;;;;;;;;14.40;99.90;;;;;;5050877;28;19931;-71
2022/10/06 06:06:23;;;;;;;;;;;14.40;99.90;;;;;;5049188;28;19924;-71
2022/10/06 06:08:52;;;;;;;;;;;14.40;99.90;;;;;;5049672;28;19948;-70
2022/10/06 06:11:24;;;;;;;;;;;14.30;99.90;;;;;;5065257;28;19926;-70
2022/10/06 06:13:51;;;;;;;;;;;14.30;99.90;;;;;;5050117;28;19928;-69
2022/10/06 06:16:18;;;;;;;;;;;14.30;99.90;;;;;;5065453;28;20003;-71
2022/10/06 06:18:45;;;;;;;;;;;14.20;99.90;;;;;;5046755;28;19959;-69
2022/10/06 06:21:13;;;;;;;;;;;14.20;99.90;;;;;;5047111;28;19932;-71
2022/10/06 06:23:43;;;;;;;;;;;14.20;99.90;;;;;;5054402;28;20267;-69
2022/10/06 06:26:23;;;;;;;;;;;14.10;99.90;;;;;;5048852;28;19926;-71
2022/10/06 06:28:51;;;;;;;;;;;14.10;99.90;;;;;;5042998;28;19944;-68
2022/10/06 06:31:20;;;;;;;;;;;14.00;99.90;;;;;;5065496;28;19958;-67
2022/10/06 06:33:52;;;;;;;;;;;14.10;99.90;;;;;;5044454;28;19920;-69
2022/10/06 06:36:25;;;;;;;;;;;14.10;99.90;;;;;;5045507;28;20257;-68
2022/10/06 06:38:54;;;;;;;;;;;14.10;99.90;;;;;;5049438;28;20297;-70
2022/10/06 06:41:22;;;;;;;;;;;14.10;99.90;;;;;;5073473;28;19932;-67
2022/10/06 06:43:54;;;;;;;;;;;14.10;99.90;;;;;;5041520;28;20012;-68
2022/10/06 06:46:44;;;;;;;;;;;14.10;99.90;;;;;;5050111;28;19920;-69
2022/10/06 06:49:15;;;;;;;;;;;14.00;99.90;;;;;;5047185;28;20326;-72
2022/10/06 06:51:49;;;;;;;;;;;14.00;99.90;;;;;;5048897;28;19930;-70
2022/10/06 06:54:18;;;;;;;;;;;14.00;99.90;;;;;;5042972;28;20298;-71
2022/10/06 06:56:50;;;;;;;;;;;14.00;99.90;;;;;;5067800;28;19977;-69
2022/10/06 06:59:19;;;;;;;;;;;13.90;99.90;;;;;;5065063;28;20016;-69
2022/10/06 07:01:48;;;;;;;;;;;13.90;99.90;;;;;;5049008;28;19920;-70
2022/10/06 07:04:18;;;;;;;;;;;13.90;99.90;;;;;;5049425;28;20000;-67
2022/10/06 07:06:52;;;;;;;;;;;13.90;99.90;;;;;;5057736;28;19999;-68
2022/10/06 07:09:19;;;;;;;;;;;13.90;99.90;;;;;;5045090;28;19928;-69
2022/10/06 07:11:46;;;;;;;;;;;13.80;99.90;;;;;;5048274;28;19986;-69
2022/10/06 07:14:17;;;;;;;;;;;13.80;99.90;;;;;;5071156;28;19928;-69
2022/10/06 07:25:19;;;;;;;;;;;13.80;99.90;;;;;;5035044;28;19921;-72
2022/10/06 07:27:54;;;;;;;;;;;13.80;99.90;;;;;;5046932;28;19920;-71
2022/10/06 07:30:26;;;;;;;;;;;13.80;99.90;;;;;;5044833;28;20393;-68
2022/10/06 07:33:00;;;;;;;;;;;13.80;99.90;;;;;;5048588;28;20035;-70
2022/10/06 07:35:27;;;;;;;;;;;13.80;99.90;;;;;;5042038;28;20249;-69
2022/10/06 07:37:54;;;;;;;;;;;13.80;99.90;;;;;;5048990;28;19920;-71
2022/10/06 07:40:23;;;;;;;;;;;13.90;99.90;;;;;;5066566;28;20003;-68
2022/10/06 07:42:53;;;;;;;;;;;13.90;99.90;;;;;;5053763;28;19928;-68
2022/10/06 07:45:37;;;;;;;;;;;13.80;99.90;;;;;;5043595;28;20043;-68
2022/10/06 07:48:16;;;;;;;;;;;13.80;99.90;;;;;;5045606;28;20120;-69
2022/10/06 07:50:50;;;;;;;;;;;13.80;99.90;;;;;;5063479;28;19959;-69
2022/10/06 07:53:26;;;;;;;;;;;13.70;99.90;;;;;;5046156;28;20012;-69
2022/10/06 07:56:05;;;;;;;;;;;13.80;99.90;;;;;;5046944;28;19924;-67
2022/10/06 07:58:38;;;;;;;;;;;13.80;99.90;;;;;;5041986;28;19927;-68
2022/10/06 08:01:06;;;;;;;;;;;13.80;99.90;;;;;;5066730;28;20011;-67
2022/10/06 08:03:35;;;;;;;;;;;13.80;99.90;;;;;;5064258;28;20030;-68
2022/10/06 08:06:02;;;;;;;;;;;13.80;99.90;;;;;;5063791;28;19942;-67
2022/10/06 08:08:31;;;;;;;;;;;13.70;99.90;;;;;;5065615;28;19956;-67
2022/10/06 08:10:58;;;;;;;;;;;13.70;99.90;;;;;;5062946;28;19939;-68
2022/10/06 08:13:27;;;;;;;;;;;13.70;99.90;;;;;;5061635;28;19924;-68
2022/10/06 08:15:55;;;;;;;;;;;13.60;99.90;;;;;;5066333;28;20028;-67
2022/10/06 08:18:24;;;;;;;;;;;13.60;99.90;;;;;;5065820;28;19968;-68
2022/10/06 08:21:13;;;;;;;;;;;13.70;99.90;;;;;;5060440;28;19931;-68
2022/10/06 08:23:41;;;;;;;;;;;13.80;99.90;;;;;;5062636;28;19978;-69
2022/10/06 08:26:11;;;;;;;;;;;14.00;99.90;;;;;;5060780;28;20027;-69
2022/10/06 08:28:38;;;;;;;;;;;14.00;99.90;;;;;;5066511;28;19926;-69
2022/10/06 08:31:06;;;;;;;;;;;14.00;99.90;;;;;;5065939;28;19924;-68
2022/10/06 08:33:37;;;;;;;;;;;13.90;99.90;;;;;;5063841;28;19977;-68
2022/10/06 08:36:05;;;;;;;;;;;13.80;99.90;;;;;;5058191;28;19936;-68
2022/10/06 08:38:31;;;;;;;;;;;13.80;99.90;;;;;;5065053;28;20028;-68
2022/10/06 08:40:58;;;;;;;;;;;13.80;99.90;;;;;;5065820;28;19931;-68
2022/10/06 08:43:26;;;;;;;;;;;13.70;99.90;;;;;;5062785;28;19921;-69
2022/10/06 08:45:58;;;;;;;;;;;13.70;99.90;;;;;;5064610;28;20371;-68
2022/10/06 08:48:28;;;;;;;;;;;13.60;99.90;;;;;;5062861;28;20014;-69
2022/10/06 08:51:18;;;;;;;;;;;13.60;99.90;;;;;;5064438;28;19928;-69
2022/10/06 08:53:55;;;;;;;;;;;13.70;99.90;;;;;;5062909;28;19927;-69
2022/10/06 08:56:25;;;;;;;;;;;13.80;99.90;;;;;;5065803;28;20011;-68
2022/10/06 08:58:57;;;;;;;;;;;13.90;99.90;;;;;;5066622;28;19943;-69
2022/10/06 09:01:25;;;;;;;;;;;13.90;99.90;;;;;;5064533;28;19927;-69
2022/10/06 09:03:54;;;;;;;;;;;14.00;99.90;;;;;;5065494;28;20369;-69
2022/10/06 09:06:30;;;;;;;;;;;14.10;99.90;;;;;;5065412;28;20014;-68
2022/10/06 09:08:59;;;;;;;;;;;14.10;99.90;;;;;;5065970;28;20011;-67
2022/10/06 09:11:45;;;;;;;;;;;14.10;99.90;;;;;;5064131;28;19974;-69
2022/10/06 09:14:28;;;;;;;;;;;14.10;99.90;;;;;;5064039;28;19925;-68
2022/10/06 09:16:59;;;;;;;;;;;14.20;99.90;;;;;;5064969;28;19930;-69
2022/10/06 09:19:40;;;;;;;;;;;14.20;99.90;;;;;;5062027;28;19985;-71
2022/10/06 09:22:13;;;;;;;;;;;14.20;99.90;;;;;;5063221;28;19935;-67
2022/10/06 09:24:48;;;;;;;;;;;14.20;99.90;;;;;;5065887;28;19976;-68
2022/10/06 09:27:15;;;;;;;;;;;14.20;99.90;;;;;;5063110;28;19967;-70
2022/10/06 09:29:41;;;;;;;;;;;14.10;99.90;;;;;;5066203;28;19927;-68
2022/10/06 09:32:09;;;;;;;;;;;14.00;99.90;;;;;;5065259;28;19931;-67
2022/10/06 09:34:41;;;;;;;;;;;14.00;99.90;;;;;;5065620;28;19943;-68
2022/10/06 09:37:11;;;;;;;;;;;14.10;99.90;;;;;;5063370;28;20023;-69
2022/10/06 09:39:40;;;;;;;;;;;14.20;99.90;;;;;;5064188;28;20039;-68
2022/10/06 09:42:13;;;;;;;;;;;14.30;99.90;;;;;;5065904;28;19931;-69
2022/10/06 09:44:46;;;;;;;;;;;14.30;99.90;;;;;;5065693;28;19924;-68
2022/10/06 09:47:32;;;;;;;;;;;14.40;99.90;;;;;;5062216;28;19921;-69
2022/10/06 09:50:10;;;;;;;;;;;14.30;99.90;;;;;;5062336;28;19920;-69
2022/10/06 09:52:38;;;;;;;;;;;14.30;99.90;;;;;;5067572;28;19981;-68
2022/10/06 09:55:10;;;;;;;;;;;14.40;99.90;;;;;;5069571;28;19921;-68
2022/10/06 09:57:37;;;;;;;;;;;14.50;99.90;;;;;;5068137;28;20019;-69
2022/10/06 10:00:24;;;;;;;;;;;14.60;99.90;;;;;;5066885;28;19959;-68
2022/10/06 10:02:56;;;;;;;;;;;14.60;99.90;;;;;;5068513;28;19960;-67
2022/10/06 10:05:23;;;;;;;;;;;14.60;99.90;;;;;;5066946;28;19927;-69
2022/10/06 10:08:00;;;;;;;;;;;14.60;99.90;;;;;;5069282;28;19946;-69
2022/10/06 10:10:27;;;;;;;;;;;14.60;99.90;;;;;;5067669;28;19936;-69
2022/10/06 10:12:58;;;;;;;;;;;14.50;99.90;;;;;;5069617;28;19924;-69
2022/10/06 10:15:26;;;;;;;;;;;14.50;99.90;;;;;;5049268;28;20744;-69
2022/10/06 10:17:55;;;;;;;;;;;14.50;99.90;;;;;;5066409;28;19958;-68
2022/10/06 10:20:22;;;;;;;;;;;14.60;99.90;;;;;;5066465;28;19960;-69
2022/10/06 10:22:50;;;;;;;;;;;14.50;99.90;;;;;;5067919;28;19920;-70
2022/10/06 10:25:35;;;;;;;;;;;14.60;99.90;;;;;;5064841;28;19927;-69
2022/10/06 10:28:15;;;;;;;;;;;14.50;99.90;;;;;;5067808;28;19931;-68
2022/10/06 10:30:48;;;;;;;;;;;14.40;99.90;;;;;;5065478;28;19920;-67
2022/10/06 10:33:21;;;;;;;;;;;14.50;99.90;;;;;;5065898;28;19927;-68
2022/10/06 10:35:50;;;;;;;;;;;14.50;99.90;;;;;;5067482;28;19974;-68
2022/10/06 10:38:18;;;;;;;;;;;14.50;99.90;;;;;;5065694;28;19921;-71
2022/10/06 10:40:47;;;;;;;;;;;14.50;99.90;;;;;;5065867;28;19921;-70
2022/10/06 10:43:14;;;;;;;;;;;14.40;99.90;;;;;;5061235;28;19930;-68
2022/10/06 10:45:53;;;;;;;;;;;14.40;99.90;;;;;;5067106;28;20032;-68
2022/10/06 10:48:20;;;;;;;;;;;14.40;99.90;;;;;;5066210;28;20401;-68
2022/10/06 10:50:50;;;;;;;;;;;14.40;99.90;;;;;;5065197;28;20015;-70
2022/10/06 10:53:30;;;;;;;;;;;14.40;99.90;;;;;;5063432;28;19928;-71
2022/10/06 10:55:57;;;;;;;;;;;14.40;99.90;;;;;;5017068;28;19930;-67
2022/10/06 10:58:33;;;;;;;;;;;14.40;99.90;;;;;;5062985;28;20004;-69
2022/10/06 11:01:18;;;;;;;;;;;14.40;99.90;;;;;;5065684;28;19924;-68
2022/10/06 11:03:55;;;;;;;;;;;14.40;99.90;;;;;;5061777;28;19932;-68
2022/10/06 11:06:30;;;;;;;;;;;14.40;99.90;;;;;;5064225;28;20030;-69
2022/10/06 11:09:01;;;;;;;;;;;14.40;99.90;;;;;;5065088;28;19948;-68
2022/10/06 11:11:31;;;;;;;;;;;14.50;99.90;;;;;;5059787;28;19971;-69
2022/10/06 11:14:02;;;;;;;;;;;14.50;99.90;;;;;;5062736;28;19959;-71
2022/10/06 11:16:42;;;;;;;;;;;14.50;99.90;;;;;;5065853;28;19927;-70
2022/10/06 11:19:27;;;;;;;;;;;14.60;99.90;;;;;;5064237;28;20015;-71
2022/10/06 11:22:01;;;;;;;;;;;14.60;99.90;;;;;;5063995;28;19920;-70
2022/10/06 11:24:37;;;;;;;;;;;14.70;99.90;;;;;;5065485;28;20019;-68
2022/10/06 11:27:22;;;;;;;;;;;14.70;99.90;;;;;;5062944;28;19927;-67
2022/10/06 11:29:52;;;;;;;;;;;14.60;99.90;;;;;;5061308;28;19921;-68
2022/10/06 11:32:38;;;;;;;;;;;14.60;99.90;;;;;;5046669;28;19939;-68
2022/10/06 11:35:19;;;;;;;;;;;14.50;99.90;;;;;;5059124;28;19968;-69
2022/10/06 11:37:50;;;;;;;;;;;14.40;99.90;;;;;;5061671;28;20273;-68
2022/10/06 11:40:36;;;;;;;;;;;14.50;99.90;;;;;;5063858;28;19924;-72
2022/10/06 11:43:35;;;;;;;;;;;14.50;99.90;;;;;;5062667;28;20042;-70
2022/10/06 11:46:02;;;;;;;;;;;14.60;99.90;;;;;;5025996;28;20019;-69
2022/10/06 11:48:29;;;;;;;;;;;14.60;99.90;;;;;;5063365;28;19920;-69
2022/10/06 11:51:16;;;;;;;;;;;14.70;99.90;;;;;;5062397;28;19920;-72
2022/10/06 11:53:43;;;;;;;;;;;14.70;99.90;;;;;;5057002;28;19924;-70
2022/10/06 11:56:15;;;;;;;;;;;14.80;99.90;;;;;;5059403;28;19947;-70
2022/10/06 11:58:54;;;;;;;;;;;14.70;99.90;;;;;;5061836;28;20010;-69
2022/10/06 12:01:30;;;;;;;;;;;14.70;99.90;;;;;;5061184;28;20281;-69
2022/10/06 12:04:06;;;;;;;;;;;14.70;99.90;;;;;;5057298;28;20566;-70
2022/10/06 12:09:27;;;;;;;;;;;14.80;99.90;;;;;;5041256;28;19931;-70
2022/10/06 12:11:55;;;;;;;;;;;14.90;99.90;;;;;;5039173;28;20568;-70
2022/10/06 12:14:34;;;;;;;;;;;14.90;99.90;;;;;;5060119;28;19928;-68
2022/10/06 12:17:36;;;;;;;;;;;14.90;99.90;;;;;;5059268;28;19924;-69
2022/10/06 12:20:15;;;;;;;;;;;15.00;99.90;;;;;;5059649;28;20061;-68
2022/10/06 12:22:48;;;;;;;;;;;15.00;99.90;;;;;;5062192;28;20239;-68
2022/10/06 12:25:24;;;;;;;;;;;15.00;99.90;;;;;;5055863;28;19930;-71
2022/10/06 12:28:09;;;;;;;;;;;14.90;99.90;;;;;;5061835;28;19969;-69
2022/10/06 12:30:50;;;;;;;;;;;15.00;99.90;;;;;;5062696;28;19925;-70
2022/10/06 12:33:17;;;;;;;;;;;15.00;99.90;;;;;;5057849;28;19928;-69
2022/10/06 12:35:45;;;;;;;;;;;15.00;99.90;;;;;;5042220;28;20265;-70
2022/10/06 12:38:29;;;;;;;;;;;15.10;99.90;;;;;;5065166;28;19928;-70
2022/10/06 12:40:56;;;;;;;;;;;15.10;99.90;;;;;;5063864;28;19931;-70
2022/10/06 12:43:26;;;;;;;;;;;15.10;99.90;;;;;;5060694;28;20010;-70
2022/10/06 12:46:14;;;;;;;;;;;15.10;99.90;;;;;;5062110;28;20064;-68
2022/10/06 12:49:00;;;;;;;;;;;15.10;99.90;;;;;;5060083;28;19927;-68
2022/10/06 12:51:31;;;;;;;;;;;15.00;99.90;;;;;;5057567;28;19920;-69
2022/10/06 12:53:59;;;;;;;;;;;15.10;99.90;;;;;;5059872;28;20279;-69
2022/10/06 12:56:30;;;;;;;;;;;15.10;99.90;;;;;;5061085;28;20772;-70
2022/10/06 12:58:57;;;;;;;;;;;15.10;99.90;;;;;;5061923;28;19998;-69
2022/10/06 13:01:26;;;;;;;;;;;15.10;99.90;;;;;;5064038;28;19928;-69
2022/10/06 13:03:54;;;;;;;;;;;15.10;99.90;;;;;;5064062;28;19965;-70
2022/10/06 13:06:22;;;;;;;;;;;15.20;99.90;;;;;;5064052;28;19920;-69
2022/10/06 13:09:01;;;;;;;;;;;15.20;99.90;;;;;;5065362;28;19924;-70
2022/10/06 13:11:28;;;;;;;;;;;15.20;99.90;;;;;;5062494;28;20642;-68
2022/10/06 13:14:06;;;;;;;;;;;15.20;99.90;;;;;;5062171;28;19927;-70
2022/10/06 13:16:39;;;;;;;;;;;15.20;99.90;;;;;;5063477;28;19940;-69
2022/10/06 13:19:14;;;;;;;;;;;15.10;99.90;;;;;;5064188;28;20312;-71
2022/10/06 13:21:41;;;;;;;;;;;15.10;99.90;;;;;;5054032;28;20053;-72
2022/10/06 13:24:12;;;;;;;;;;;15.00;99.90;;;;;;5065662;28;19951;-70
2022/10/06 13:26:39;;;;;;;;;;;15.00;99.90;;;;;;5066566;28;19925;-69
2022/10/06 13:29:16;;;;;;;;;;;15.00;99.90;;;;;;5069663;28;19946;-67
2022/10/06 13:31:50;;;;;;;;;;;15.00;99.90;;;;;;5067024;28;19947;-70
2022/10/06 13:34:21;;;;;;;;;;;14.80;99.90;;;;;;5065218;28;19934;-69
2022/10/06 13:36:49;;;;;;;;;;;14.80;99.90;;;;;;5068491;28;19925;-68
2022/10/06 13:39:17;;;;;;;;;;;14.90;99.90;;;;;;5065481;28;19920;-69
2022/10/06 13:41:53;;;;;;;;;;;14.90;99.90;;;;;;5068763;28;19920;-68
2022/10/06 13:44:33;;;;;;;;;;;14.90;99.90;;;;;;5064253;28;20363;-69
2022/10/06 13:47:05;;;;;;;;;;;14.90;99.90;;;;;;5065900;28;19955;-70
2022/10/06 13:49:43;;;;;;;;;;;14.90;99.90;;;;;;5063834;28;20071;-68
2022/10/06 13:52:15;;;;;;;;;;;15.00;99.90;;;;;;5065495;28;19924;-71
2022/10/06 13:54:52;;;;;;;;;;;15.00;99.90;;;;;;5065613;28;20458;-68
2022/10/06 13:57:40;;;;;;;;;;;15.10;99.90;;;;;;5061132;28;20301;-69
2022/10/06 14:00:13;;;;;;;;;;;15.10;99.90;;;;;;5064171;28;20350;-72
2022/10/06 14:02:41;;;;;;;;;;;15.20;99.90;;;;;;5069108;28;19962;-69
2022/10/06 14:05:40;;;;;;;;;;;15.20;99.90;;;;;;5068077;28;19921;-68
2022/10/06 14:08:10;;;;;;;;;;;15.30;99.90;;;;;;5010605;28;19924;-67
2022/10/06 14:10:41;;;;;;;;;;;15.30;99.90;;;;;;5068063;28;19930;-70
2022/10/06 14:13:12;;;;;;;;;;;15.10;99.90;;;;;;5064371;28;20246;-67
2022/10/06 14:15:46;;;;;;;;;;;15.10;99.90;;;;;;5061294;28;20499;-69
2022/10/06 14:18:15;;;;;;;;;;;15.20;99.90;;;;;;5064819;28;19925;-71
2022/10/06 14:20:46;;;;;;;;;;;15.20;99.90;;;;;;5060544;28;20530;-70
2022/10/06 14:23:32;;;;;;;;;;;15.20;99.90;;;;;;5061541;28;19927;-72
2022/10/06 14:25:59;;;;;;;;;;;15.30;99.90;;;;;;5062247;28;19966;-73
2022/10/06 14:28:26;;;;;;;;;;;15.40;99.90;;;;;;5062439;28;19963;-65
2022/10/06 14:30:55;;;;;;;;;;;15.50;99.90;;;;;;5065393;28;19927;-66
2022/10/06 14:33:22;;;;;;;;;;;15.50;99.90;;;;;;5062643;28;19924;-69
2022/10/06 14:35:49;;;;;;;;;;;15.60;99.90;;;;;;5066329;28;20058;-70
2022/10/06 14:38:17;;;;;;;;;;;15.60;99.90;;;;;;5063036;28;19935;-69
2022/10/06 14:40:44;;;;;;;;;;;15.60;99.90;;;;;;5064491;28;19963;-68
2022/10/06 14:43:11;;;;;;;;;;;15.70;99.90;;;;;;5064122;28;19921;-71
2022/10/06 14:45:41;;;;;;;;;;;15.70;99.90;;;;;;5055080;28;20040;-70
2022/10/06 14:48:08;;;;;;;;;;;15.70;99.90;;;;;;5067661;28;20433;-66
2022/10/06 14:50:35;;;;;;;;;;;15.50;99.90;;;;;;5066601;28;19930;-70